createdAt,value
2022-10-06T00:01:13.852Z,98468.13
2022-10-06T00:03:42.206Z,98467.94
2022-10-06T00:06:12.836Z,98462.81
2022-10-06T00:08:42.510Z,98458.47
2022-10-06T00:11:11.511Z,98458.31
2022-10-06T00:13:41.745Z,98457.47
2022-10-06T00:16:11.246Z,98462.47
2022-10-06T00:18:39.588Z,98456.41
2022-10-06T00:21:07.924Z,98452.06
2022-10-06T00:23:36.350Z,98455.53
2022-10-06T00:26:04.623Z,98460.66
2022-10-06T00:28:33.501Z,98455.44
2022-10-06T00:31:04.061Z,98454.53
2022-10-06T00:33:32.364Z,98451.06
2022-10-06T00:36:01.135Z,98451.91
2022-10-06T00:38:30.078Z,98454.44
2022-10-06T00:40:58.700Z,98457.22
2022-10-06T00:43:51.446Z,98458.84
2022-10-06T00:46:25.561Z,98456.06
2022-10-06T00:48:58.515Z,98446.50
2022-10-06T00:51:28.707Z,98449.81
2022-10-06T00:53:58.159Z,98454.16
2022-10-06T00:56:26.811Z,98456.66
2022-10-06T00:58:55.119Z,98454.06
2022-10-06T01:01:25.260Z,98452.41
2022-10-06T01:03:57.253Z,98461.22
2022-10-06T01:06:25.540Z,98456.94
2022-10-06T01:08:54.093Z,98459.41
2022-10-06T01:11:22.418Z,98453.09
2022-10-06T01:13:50.616Z,98449.66
2022-10-06T01:16:23.310Z,98446.19
2022-10-06T01:18:54.677Z,98441.84
2022-10-06T01:21:28.005Z,98439.25
2022-10-06T01:23:58.505Z,98441.72
2022-10-06T01:26:28.637Z,98439.81
2022-10-06T01:28:57.124Z,98439.81
2022-10-06T01:31:27.062Z,98439.75
2022-10-06T01:33:56.211Z,98434.34
2022-10-06T01:36:25.206Z,98441.19
2022-10-06T01:38:53.422Z,98441.97
2022-10-06T01:41:24.971Z,98443.16
2022-10-06T01:43:53.407Z,98446.09
2022-10-06T01:46:22.505Z,98449.56
2022-10-06T01:48:51.096Z,98442.50
2022-10-06T01:51:20.193Z,98441.72
2022-10-06T01:53:48.450Z,98446.38
2022-10-06T01:56:16.708Z,98443.59
2022-10-06T01:58:46.418Z,98441.44
2022-10-06T02:01:14.752Z,98441.31
2022-10-06T02:03:43.321Z,98438.59
2022-10-06T02:06:12.022Z,98442.91
2022-10-06T02:08:42.962Z,98437.75
2022-10-06T02:11:12.872Z,98435.94
2022-10-06T02:13:44.486Z,98437.53
2022-10-06T02:16:14.524Z,98432.16
2022-10-06T02:18:44.608Z,98427.66
2022-10-06T02:21:16.147Z,98433.56
2022-10-06T02:23:44.509Z,98436.84
2022-10-06T02:26:13.821Z,98449.63
2022-10-06T02:28:42.100Z,98438.34
2022-10-06T02:31:15.245Z,98435.72
2022-10-06T02:33:44.865Z,98453.16
2022-10-06T02:36:15.553Z,98448.00
2022-10-06T02:38:44.750Z,98447.31
2022-10-06T02:41:12.967Z,98454.19
2022-10-06T02:43:41.262Z,98453.28
2022-10-06T02:46:12.610Z,98454.03
2022-10-06T02:48:48.228Z,98459.09
2022-10-06T02:51:18.212Z,98455.91
2022-10-06T02:53:48.626Z,98461.34
2022-10-06T02:56:19.735Z,98462.09
2022-10-06T02:58:49.024Z,98467.75
2022-10-06T03:01:26.997Z,98462.72
2022-10-06T03:03:59.882Z,98467.47
2022-10-06T03:06:29.625Z,98462.22
2022-10-06T03:09:06.123Z,98463.97
2022-10-06T03:11:37.787Z,98475.06
2022-10-06T03:14:07.434Z,98466.09
2022-10-06T03:16:38.789Z,98468.66
2022-10-06T03:19:11.869Z,98464.38
2022-10-06T03:21:42.025Z,98459.09
2022-10-06T03:24:10.416Z,98465.22
2022-10-06T03:26:40.985Z,98465.13
2022-10-06T03:29:11.937Z,98470.25
2022-10-06T03:31:44.441Z,98465.66
2022-10-06T03:34:15.349Z,98460.19
2022-10-06T03:36:45.257Z,98471.34
2022-10-06T03:39:14.228Z,98474.13
2022-10-06T03:41:42.603Z,98476.91
2022-10-06T03:44:11.499Z,98480.63
2022-10-06T03:46:42.803Z,98487.44
2022-10-06T03:49:11.948Z,98485.78
2022-10-06T03:51:43.438Z,98493.28
2022-10-06T03:54:17.097Z,98496.81
2022-10-06T03:56:48.253Z,98506.47
2022-10-06T03:59:17.547Z,98502.50
2022-10-06T04:01:48.933Z,98504.72
2022-10-06T04:04:25.436Z,98504.84
2022-10-06T04:07:00.731Z,98513.78
2022-10-06T04:09:29.129Z,98511.81
2022-10-06T04:11:58.241Z,98513.59
2022-10-06T04:14:26.652Z,98505.81
2022-10-06T04:16:57.157Z,98521.91
2022-10-06T04:19:32.961Z,98521.72
2022-10-06T04:22:02.607Z,98514.78
2022-10-06T04:24:31.694Z,98515.88
2022-10-06T04:27:20.183Z,98519.28
2022-10-06T04:30:00.207Z,98513.94
2022-10-06T04:32:29.696Z,98524.25
2022-10-06T04:34:58.216Z,98520.16
2022-10-06T04:37:29.226Z,98528.91
2022-10-06T04:39:58.323Z,98526.41
2022-10-06T04:42:33.951Z,98534.88
2022-10-06T04:45:04.140Z,98526.94
2022-10-06T04:47:32.330Z,98531.97
2022-10-06T04:50:00.763Z,98535.47
2022-10-06T04:52:30.427Z,98531.53
2022-10-06T04:54:58.738Z,98534.97
2022-10-06T04:57:26.991Z,98532.84
2022-10-06T05:00:14.927Z,98538.13
2022-10-06T05:02:45.697Z,98536.41
2022-10-06T05:05:13.986Z,98539.13
2022-10-06T05:07:46.264Z,98535.25
2022-10-06T05:10:15.498Z,98540.72
2022-10-06T05:12:44.851Z,98541.78
2022-10-06T05:15:13.162Z,98544.88
2022-10-06T05:17:41.953Z,98550.53
2022-10-06T05:20:12.591Z,98538.91
2022-10-06T05:22:41.130Z,98543.09
2022-10-06T05:25:11.235Z,98554.44
2022-10-06T05:27:39.494Z,98548.97
2022-10-06T05:30:08.840Z,98554.00
2022-10-06T05:32:37.265Z,98565.34
2022-10-06T05:35:07.073Z,98566.91
2022-10-06T05:37:35.394Z,98566.06
2022-10-06T05:40:03.755Z,98571.41
2022-10-06T05:42:33.490Z,98577.44
2022-10-06T05:45:01.788Z,98579.31
2022-10-06T05:47:30.514Z,98573.19
2022-10-06T05:49:58.754Z,98575.78
2022-10-06T05:52:27.059Z,98587.06
2022-10-06T05:54:55.421Z,98590.56
2022-10-06T05:57:23.644Z,98596.63
2022-10-06T05:59:53.628Z,98602.69
2022-10-06T06:02:21.953Z,98599.53
2022-10-06T06:04:50.339Z,98606.81
2022-10-06T06:07:19.432Z,98609.91
2022-10-06T06:09:48.583Z,98604.84
2022-10-06T06:12:16.848Z,98615.31
2022-10-06T06:15:13.239Z,98619.88
2022-10-06T06:17:49.637Z,98626.13
2022-10-06T06:20:18.000Z,98617.97
2022-10-06T06:22:46.329Z,98624.94
2022-10-06T06:25:14.601Z,98626.03
2022-10-06T06:27:45.591Z,98630.56
2022-10-06T06:30:16.278Z,98631.59
2022-10-06T06:32:44.680Z,98630.91
2022-10-06T06:35:13.173Z,98632.75
2022-10-06T06:37:41.521Z,98633.69
2022-10-06T06:40:10.398Z,98636.31
2022-10-06T06:42:40.436Z,98645.97
2022-10-06T06:45:48.291Z,98637.56
2022-10-06T06:48:37.998Z,98643.16
2022-10-06T06:51:07.491Z,98652.00
2022-10-06T06:53:36.351Z,98649.59
2022-10-06T06:56:05.359Z,98658.50
2022-10-06T06:58:35.719Z,98652.66
2022-10-06T07:01:13.850Z,98651.88
2022-10-06T07:03:57.087Z,98653.13
2022-10-06T07:06:28.696Z,98644.00
2022-10-06T07:09:00.060Z,98646.81
2022-10-06T07:11:30.359Z,98638.38
2022-10-06T07:14:01.448Z,98633.28
2022-10-06T07:16:49.876Z,98629.06
2022-10-06T07:19:36.303Z,98627.59
2022-10-06T07:22:31.336Z,98615.47
2022-10-06T07:25:11.685Z,98621.53
2022-10-06T07:27:51.205Z,98620.69
2022-10-06T07:30:45.723Z,98613.84
2022-10-06T07:33:18.137Z,98619.09
2022-10-06T07:35:47.242Z,98622.56
2022-10-06T07:38:18.718Z,98621.00
2022-10-06T07:41:17.840Z,98616.66
2022-10-06T07:43:46.952Z,98627.16
2022-10-06T07:46:16.331Z,98625.53
2022-10-06T07:48:56.283Z,98622.13
2022-10-06T07:51:24.878Z,98617.78
2022-10-06T07:53:54.075Z,98609.06
2022-10-06T07:56:45.857Z,98607.31
2022-10-06T07:59:14.157Z,98608.94
2022-10-06T08:01:44.644Z,98605.22
2022-10-06T08:04:14.852Z,98606.75
2022-10-06T08:06:43.138Z,98607.22
2022-10-06T08:09:11.382Z,98603.44
2022-10-06T08:11:39.568Z,98610.44
2022-10-06T08:14:07.824Z,98603.09
2022-10-06T08:16:36.196Z,98604.34
2022-10-06T08:19:04.604Z,98612.75
2022-10-06T08:21:35.522Z,98613.84
2022-10-06T08:24:03.879Z,98621.25
2022-10-06T08:26:33.301Z,98614.41
2022-10-06T08:29:03.272Z,98619.53
2022-10-06T08:31:32.912Z,98620.25
2022-10-06T08:34:01.519Z,98617.66
2022-10-06T08:36:32.319Z,98627.06
2022-10-06T08:39:02.715Z,98631.63
2022-10-06T08:41:39.825Z,98621.91
2022-10-06T08:44:19.789Z,98631.69
2022-10-06T08:46:53.049Z,98630.41
2022-10-06T08:49:23.757Z,98619.50
2022-10-06T08:51:58.405Z,98623.16
2022-10-06T08:54:31.098Z,98621.09
2022-10-06T08:57:05.338Z,98635.03
2022-10-06T08:59:34.799Z,98629.97
2022-10-06T09:02:08.147Z,98631.81
2022-10-06T09:04:36.482Z,98636.81
2022-10-06T09:07:11.374Z,98634.22
2022-10-06T09:09:58.771Z,98636.97
2022-10-06T09:12:33.101Z,98635.44
2022-10-06T09:15:10.839Z,98636.09
2022-10-06T09:17:43.139Z,98639.44
2022-10-06T09:20:20.353Z,98635.28
2022-10-06T09:22:50.178Z,98638.25
2022-10-06T09:25:22.518Z,98640.41
2022-10-06T09:27:55.371Z,98638.81
2022-10-06T09:30:25.125Z,98640.38
2022-10-06T09:32:59.377Z,98636.38
2022-10-06T09:35:29.272Z,98643.31
2022-10-06T09:37:58.810Z,98640.69
2022-10-06T09:40:39.812Z,98641.13
2022-10-06T09:43:25.740Z,98643.41
2022-10-06T09:45:54.875Z,98647.34
2022-10-06T09:48:25.427Z,98642.88
2022-10-06T09:51:14.479Z,98641.19
2022-10-06T09:53:43.145Z,98644.63
2022-10-06T09:56:18.861Z,98641.81
2022-10-06T09:58:56.484Z,98639.13
2022-10-06T10:01:26.889Z,98639.94
2022-10-06T10:04:20.567Z,98632.69
2022-10-06T10:06:49.509Z,98636.22
2022-10-06T10:09:28.889Z,98635.38
2022-10-06T10:12:43.301Z,98637.59
2022-10-06T10:15:26.438Z,98644.75
2022-10-06T10:17:56.801Z,98638.31
2022-10-06T10:20:34.208Z,98641.44
2022-10-06T10:23:05.881Z,98639.88
2022-10-06T10:25:48.698Z,98633.41
2022-10-06T10:28:28.999Z,98638.03
2022-10-06T10:31:01.879Z,98640.63
2022-10-06T10:33:33.550Z,98640.03
2022-10-06T10:36:03.757Z,98644.41
2022-10-06T10:38:32.969Z,98637.59
2022-10-06T10:41:04.794Z,98639.47
2022-10-06T10:43:36.131Z,98634.91
2022-10-06T10:46:07.165Z,98632.50
2022-10-06T10:48:39.031Z,98633.97
2022-10-06T10:51:10.356Z,98638.00
2022-10-06T10:53:47.325Z,98638.16
2022-10-06T10:56:17.645Z,98647.44
2022-10-06T10:58:49.448Z,98643.88
2022-10-06T11:01:27.324Z,98640.88
2022-10-06T11:03:58.704Z,98647.78
2022-10-06T11:07:02.476Z,98644.00
2022-10-06T11:09:35.003Z,98647.91
2022-10-06T11:12:29.808Z,98637.53
2022-10-06T11:15:03.573Z,98640.84
2022-10-06T11:17:45.293Z,98640.09
2022-10-06T11:20:37.607Z,98634.00
2022-10-06T11:23:25.452Z,98635.22
2022-10-06T11:26:04.492Z,98634.94
2022-10-06T11:28:39.361Z,98634.66
2022-10-06T11:31:16.688Z,98630.94
2022-10-06T11:33:50.136Z,98630.31
2022-10-06T11:36:23.711Z,98626.75
2022-10-06T11:38:57.292Z,98629.00
2022-10-06T11:41:28.833Z,98627.19
2022-10-06T11:44:03.652Z,98622.63
2022-10-06T11:46:42.639Z,98618.88
2022-10-06T11:49:53.421Z,98623.56
2022-10-06T11:52:55.382Z,98616.75
2022-10-06T11:55:26.499Z,98618.25
2022-10-06T11:58:41.368Z,98614.97
2022-10-06T12:01:04.923Z,98621.63
2022-10-06T12:03:49.189Z,98611.72
2022-10-06T12:06:59.702Z,98614.75
2022-10-06T12:09:51.747Z,98622.72
2022-10-06T12:12:45.893Z,98620.41
2022-10-06T12:18:45.687Z,98611.97
2022-10-06T12:21:43.331Z,98609.25
2022-10-06T12:24:31.587Z,98607.63
2022-10-06T12:27:34.794Z,98609.06
2022-10-06T12:30:16.150Z,98610.22
2022-10-06T12:32:51.643Z,98604.41
2022-10-06T12:35:30.241Z,98609.44
2022-10-06T12:38:04.810Z,98612.06
2022-10-06T12:40:46.633Z,98606.28
2022-10-06T12:43:32.527Z,98610.81
2022-10-06T12:46:03.274Z,98609.56
2022-10-06T12:48:37.545Z,98611.25
2022-10-06T12:51:18.130Z,98611.88
2022-10-06T12:53:54.626Z,98612.56
2022-10-06T12:56:29.156Z,98611.88
2022-10-06T12:58:58.108Z,98613.53
2022-10-06T13:01:28.882Z,98602.50
2022-10-06T13:03:57.276Z,98601.34
2022-10-06T13:06:26.727Z,98596.22
2022-10-06T13:09:13.339Z,98602.28
2022-10-06T13:11:41.601Z,98597.22
2022-10-06T13:14:12.411Z,98600.66
2022-10-06T13:16:43.091Z,98605.91
2022-10-06T13:19:19.792Z,98600.94
2022-10-06T13:21:48.492Z,98607.84
2022-10-06T13:24:20.654Z,98608.09
2022-10-06T13:26:49.626Z,98607.78
2022-10-06T13:29:21.347Z,98605.00
2022-10-06T13:31:52.996Z,98608.13
2022-10-06T13:34:28.496Z,98605.84
2022-10-06T13:36:57.187Z,98613.00
2022-10-06T13:39:31.850Z,98619.69
2022-10-06T13:42:03.443Z,98618.47
2022-10-06T13:44:35.397Z,98611.53
2022-10-06T13:47:05.867Z,98607.53
2022-10-06T13:49:36.453Z,98624.94
2022-10-06T13:52:11.358Z,98611.94
2022-10-06T13:54:48.190Z,98615.56
2022-10-06T13:57:44.582Z,98611.28
2022-10-06T14:00:22.084Z,98625.84
2022-10-06T14:02:52.044Z,98620.19
2022-10-06T14:05:26.918Z,98617.66
2022-10-06T14:07:57.222Z,98621.59
2022-10-06T14:10:30.226Z,98624.63
2022-10-06T14:12:59.556Z,98620.66
2022-10-06T14:15:30.832Z,98617.53
2022-10-06T14:18:00.851Z,98628.81
2022-10-06T14:20:48.902Z,98624.44
2022-10-06T14:23:51.083Z,98618.66
2022-10-06T14:26:25.190Z,98620.94
2022-10-06T14:28:54.592Z,98621.84
2022-10-06T14:31:23.748Z,98619.38
2022-10-06T14:33:53.417Z,98621.22
2022-10-06T14:36:24.038Z,98623.25
2022-10-06T14:38:53.299Z,98629.72
2022-10-06T14:41:27.644Z,98627.41
2022-10-06T14:43:56.510Z,98633.72
2022-10-06T14:46:25.467Z,98625.28
2022-10-06T14:48:53.796Z,98614.34
2022-10-06T14:51:24.188Z,98620.19
2022-10-06T14:53:54.446Z,98622.66
2022-10-06T14:56:25.396Z,98616.72
2022-10-06T14:58:53.770Z,98621.97
2022-10-06T15:01:24.850Z,98628.56
2022-10-06T15:03:53.514Z,98615.31
2022-10-06T15:06:39.695Z,98635.22
2022-10-06T15:09:08.597Z,98636.31
2022-10-06T15:11:39.303Z,98638.41
2022-10-06T15:14:08.703Z,98639.16
2022-10-06T15:16:40.825Z,98640.19
2022-10-06T15:19:11.020Z,98637.31
2022-10-06T15:21:40.212Z,98634.16
2022-10-06T15:24:11.208Z,98643.19
2022-10-06T15:26:58.383Z,98638.91
2022-10-06T15:29:26.897Z,98635.44
2022-10-06T15:31:55.415Z,98643.72
2022-10-06T15:34:26.700Z,98644.78
2022-10-06T15:36:56.261Z,98645.63
2022-10-06T15:39:27.276Z,98643.41
2022-10-06T15:41:57.362Z,98643.84
2022-10-06T15:44:25.914Z,98647.75
2022-10-06T15:46:56.297Z,98653.56
2022-10-06T15:49:26.141Z,98653.03
2022-10-06T15:51:56.871Z,98651.09
2022-10-06T15:54:26.960Z,98650.94
2022-10-06T15:56:58.225Z,98650.84
2022-10-06T15:59:27.618Z,98651.81
2022-10-06T16:01:57.883Z,98664.22
2022-10-06T16:04:33.924Z,98658.44
2022-10-06T16:07:02.710Z,98673.75
2022-10-06T16:09:32.321Z,98674.31
2022-10-06T16:12:03.925Z,98673.81
2022-10-06T16:14:32.759Z,98675.25
2022-10-06T16:17:02.596Z,98682.56
2022-10-06T16:19:32.498Z,98688.91
2022-10-06T16:22:01.878Z,98688.31
2022-10-06T16:24:30.129Z,98697.06
2022-10-06T16:27:00.151Z,98700.97
2022-10-06T16:29:30.220Z,98693.31
2022-10-06T16:31:59.188Z,98703.19
2022-10-06T16:34:27.556Z,98708.56
2022-10-06T16:36:55.794Z,98708.00
2022-10-06T16:39:24.479Z,98718.63
2022-10-06T16:41:54.140Z,98724.09
2022-10-06T16:44:22.445Z,98727.72
2022-10-06T16:46:52.201Z,98727.06
2022-10-06T16:49:21.243Z,98743.88
2022-10-06T16:51:49.480Z,98737.94
2022-10-06T16:54:18.337Z,98745.13
2022-10-06T16:56:48.246Z,98744.38
2022-10-06T16:59:18.151Z,98750.41
2022-10-06T17:01:47.311Z,98750.47
2022-10-06T17:04:18.548Z,98748.94
2022-10-06T17:06:48.749Z,98755.91
2022-10-06T17:09:18.885Z,98756.91
2022-10-06T17:11:49.439Z,98767.63
2022-10-06T17:14:18.400Z,98767.50
2022-10-06T17:16:47.974Z,98780.75
2022-10-06T17:19:18.580Z,98779.25
2022-10-06T17:21:49.659Z,98785.59
2022-10-06T17:24:20.706Z,98792.72
2022-10-06T17:26:50.634Z,98793.69
2022-10-06T17:29:21.425Z,98798.25
2022-10-06T17:31:53.470Z,98800.81
2022-10-06T17:34:25.488Z,98800.91
2022-10-06T17:36:59.790Z,98806.22
2022-10-06T17:39:28.228Z,98811.59
2022-10-06T17:41:57.373Z,98811.53
2022-10-06T17:44:28.618Z,98822.88
2022-10-06T17:46:58.637Z,98815.13
2022-10-06T17:49:30.560Z,98819.53
2022-10-06T17:51:59.332Z,98819.53
2022-10-06T17:54:31.857Z,98833.47
2022-10-06T17:57:00.110Z,98825.63
2022-10-06T17:59:31.021Z,98830.84
2022-10-06T18:02:02.623Z,98827.22
2022-10-06T18:04:36.049Z,98826.34
2022-10-06T18:07:05.456Z,98826.38
2022-10-06T18:09:34.197Z,98836.09
2022-10-06T18:12:03.076Z,98830.06
2022-10-06T18:14:35.029Z,98827.50
2022-10-06T18:17:05.064Z,98835.34
2022-10-06T18:19:36.263Z,98834.50
2022-10-06T18:22:10.206Z,98841.50
2022-10-06T18:24:40.864Z,98843.19
2022-10-06T18:27:10.428Z,98847.59
2022-10-06T18:29:40.896Z,98851.03
2022-10-06T18:36:11.017Z,98860.56
2022-10-06T18:37:53.145Z,98868.47
2022-10-06T18:40:25.531Z,98869.34
2022-10-06T18:42:54.859Z,98867.63
2022-10-06T18:45:40.740Z,98878.06
2022-10-06T18:48:26.877Z,98881.50
2022-10-06T18:51:03.911Z,98878.91
2022-10-06T18:53:33.940Z,98875.44
2022-10-06T18:56:03.182Z,98885.84
2022-10-06T18:58:32.410Z,98883.22
2022-10-06T19:01:05.804Z,98893.63
2022-10-06T19:03:35.803Z,98893.66
2022-10-06T19:06:07.076Z,98885.81
2022-10-06T19:08:37.829Z,98889.31
2022-10-06T19:11:26.668Z,98893.63
2022-10-06T19:13:58.387Z,98896.13
2022-10-06T19:16:27.791Z,98887.47
2022-10-06T19:18:58.089Z,98896.97
2022-10-06T19:21:29.618Z,98897.03
2022-10-06T19:24:01.149Z,98887.50
2022-10-06T19:26:30.894Z,98889.19
2022-10-06T19:29:01.989Z,98889.22
2022-10-06T19:31:31.557Z,98887.53
2022-10-06T19:34:04.727Z,98881.38
2022-10-06T19:36:36.440Z,98886.53
2022-10-06T19:39:08.064Z,98879.63
2022-10-06T19:41:59.285Z,98882.22
2022-10-06T19:44:30.363Z,98890.94
2022-10-06T19:46:58.816Z,98895.19
2022-10-06T19:49:27.204Z,98908.97
2022-10-06T19:51:57.547Z,98906.38
2022-10-06T19:54:28.117Z,98911.63
2022-10-06T19:56:58.421Z,98914.09
2022-10-06T19:59:28.611Z,98904.44
2022-10-06T20:01:56.903Z,98909.75
2022-10-06T20:04:26.267Z,98902.88
2022-10-06T20:06:56.385Z,98910.63
2022-10-06T20:09:24.895Z,98907.13
2022-10-06T20:11:53.563Z,98913.16
2022-10-06T20:14:23.210Z,98910.50
2022-10-06T20:16:52.820Z,98911.44
2022-10-06T20:19:21.712Z,98907.13
2022-10-06T20:21:50.076Z,98906.28
2022-10-06T20:24:22.728Z,98907.06
2022-10-06T20:26:55.685Z,98905.22
2022-10-06T20:29:25.453Z,98908.72
2022-10-06T20:31:56.073Z,98907.03
2022-10-06T20:34:26.151Z,98908.72
2022-10-06T20:36:59.734Z,98896.59
2022-10-06T20:39:48.095Z,98893.13
2022-10-06T20:42:16.710Z,98890.47
2022-10-06T20:44:45.204Z,98901.00
2022-10-06T20:47:13.886Z,98896.53
2022-10-06T20:49:43.182Z,98902.41
2022-10-06T20:52:14.618Z,98894.63
2022-10-06T20:54:48.824Z,98902.38
2022-10-06T20:57:17.148Z,98905.84
2022-10-06T20:59:46.263Z,98903.38
2022-10-06T21:02:14.840Z,98901.56
2022-10-06T21:04:43.709Z,98897.13
2022-10-06T21:07:12.201Z,98904.97
2022-10-06T21:09:40.517Z,98901.38
2022-10-06T21:12:10.265Z,98901.28
2022-10-06T21:14:42.343Z,98905.56
2022-10-06T21:17:10.685Z,98901.22
2022-10-06T21:19:39.060Z,98899.47
2022-10-06T21:22:07.410Z,98903.75
2022-10-06T21:24:35.995Z,98903.16
2022-10-06T21:27:04.441Z,98891.88
2022-10-06T21:29:34.412Z,98894.38
2022-10-06T21:32:02.718Z,98897.03
2022-10-06T21:34:31.040Z,98894.47
2022-10-06T21:36:59.445Z,98894.31
2022-10-06T21:39:27.777Z,98890.88
2022-10-06T21:41:56.111Z,98887.41
2022-10-06T21:44:24.484Z,98885.75
2022-10-06T21:46:55.618Z,98884.84
2022-10-06T21:49:25.418Z,98876.19
2022-10-06T21:51:54.991Z,98887.22
2022-10-06T21:54:24.309Z,98881.31
2022-10-06T21:56:52.830Z,98879.56
2022-10-06T21:59:21.303Z,98873.56
2022-10-06T22:01:50.874Z,98876.31
2022-10-06T22:04:20.779Z,98869.31
2022-10-06T22:06:50.327Z,98869.16
2022-10-06T22:09:20.574Z,98863.00
2022-10-06T22:11:49.149Z,98863.03
2022-10-06T22:14:18.995Z,98867.31
2022-10-06T22:16:47.823Z,98863.84
2022-10-06T22:19:18.074Z,98867.38
2022-10-06T22:21:49.607Z,98862.97
2022-10-06T22:24:19.774Z,98863.22
2022-10-06T22:26:48.645Z,98855.38
2022-10-06T22:29:18.425Z,98857.88
2022-10-06T22:31:47.794Z,98854.25
2022-10-06T22:34:18.317Z,98858.19
2022-10-06T22:36:48.273Z,98861.94
2022-10-06T22:39:16.783Z,98853.31
2022-10-06T22:41:45.578Z,98854.03
2022-10-06T22:44:13.899Z,98854.84
2022-10-06T22:46:42.321Z,98843.72
2022-10-06T22:49:10.837Z,98851.47
2022-10-06T22:51:39.178Z,98849.84
2022-10-06T22:54:08.973Z,98847.94
2022-10-06T22:56:37.279Z,98852.88
2022-10-06T22:59:05.577Z,98847.72
2022-10-06T23:01:34.106Z,98857.38
2022-10-06T23:04:02.415Z,98851.28
2022-10-06T23:06:31.569Z,98847.66
2022-10-06T23:09:00.165Z,98845.03
2022-10-06T23:11:30.182Z,98847.50
2022-10-06T23:13:58.517Z,98846.75
2022-10-06T23:16:27.227Z,98848.31
2022-10-06T23:18:56.172Z,98849.00
2022-10-06T23:21:27.810Z,98853.22
2022-10-06T23:23:57.439Z,98851.50
2022-10-06T23:26:26.116Z,98858.28
2022-10-06T23:28:57.518Z,98859.91
2022-10-06T23:31:26.456Z,98854.63
2022-10-06T23:33:55.423Z,98862.44
2022-10-06T23:36:23.761Z,98856.38
2022-10-06T23:38:52.090Z,98852.84
2022-10-06T23:41:20.582Z,98857.97
2022-10-06T23:43:48.922Z,98856.22
2022-10-06T23:46:18.847Z,98862.13
2022-10-06T23:48:47.315Z,98863.72
2022-10-06T23:51:16.529Z,98857.56
2022-10-06T23:53:45.287Z,98867.03
2022-10-06T23:56:14.128Z,98862.81
2022-10-06T23:58:42.987Z,98867.03
